sensor_id;sensor_type;location;lat;lon;timestamp;P1;durP1;ratioP1;P2;durP2;ratioP2
54428;SDS011;40337;52.978;6.310;2023-08-20T00:00:10;4.40;;;2.80;;
54428;SDS011;40337;52.978;6.310;2023-08-20T00:02:36;4.38;;;2.50;;
54428;SDS011;40337;52.978;6.310;2023-08-20T00:05:05;4.82;;;2.40;;
54428;SDS011;40337;52.978;6.310;2023-08-20T00:07:31;6.20;;;2.85;;
54428;SDS011;40337;52.978;6.310;2023-08-20T00:09:57;3.80;;;2.17;;
54428;SDS011;40337;52.978;6.310;2023-08-20T00:12:23;6.90;;;3.05;;
54428;SDS011;40337;52.978;6.310;2023-08-20T00:14:52;8.18;;;2.97;;
54428;SDS011;40337;52.978;6.310;2023-08-20T00:17:19;9.63;;;3.58;;
54428;SDS011;40337;52.978;6.310;2023-08-20T00:19:44;7.05;;;3.60;;
54428;SDS011;40337;52.978;6.310;2023-08-20T00:22:10;9.05;;;3.25;;
54428;SDS011;40337;52.978;6.310;2023-08-20T00:24:36;8.00;;;1.80;;
54428;SDS011;40337;52.978;6.310;2023-08-20T00:27:02;2.53;;;1.00;;
54428;SDS011;40337;52.978;6.310;2023-08-20T00:29:27;5.03;;;1.67;;
54428;SDS011;40337;52.978;6.310;2023-08-20T00:31:53;6.75;;;1.55;;
54428;SDS011;40337;52.978;6.310;2023-08-20T00:34:18;11.65;;;1.70;;
54428;SDS011;40337;52.978;6.310;2023-08-20T00:36:44;15.15;;;2.78;;
54428;SDS011;40337;52.978;6.310;2023-08-20T00:39:11;9.32;;;2.05;;
54428;SDS011;40337;52.978;6.310;2023-08-20T00:41:36;5.10;;;2.55;;
54428;SDS011;40337;52.978;6.310;2023-08-20T00:44:02;4.75;;;3.03;;
54428;SDS011;40337;52.978;6.310;2023-08-20T00:46:28;6.00;;;2.55;;
54428;SDS011;40337;52.978;6.310;2023-08-20T00:48:55;6.63;;;2.53;;
54428;SDS011;40337;52.978;6.310;2023-08-20T00:51:21;5.45;;;2.78;;
54428;SDS011;40337;52.978;6.310;2023-08-20T00:53:48;7.40;;;3.28;;
54428;SDS011;40337;52.978;6.310;2023-08-20T00:56:14;7.70;;;3.72;;
54428;SDS011;40337;52.978;6.310;2023-08-20T00:58:40;5.68;;;3.05;;
54428;SDS011;40337;52.978;6.310;2023-08-20T01:01:06;8.13;;;2.85;;
54428;SDS011;40337;52.978;6.310;2023-08-20T01:03:32;4.72;;;2.50;;
54428;SDS011;40337;52.978;6.310;2023-08-20T01:06:10;4.93;;;2.40;;
54428;SDS011;40337;52.978;6.310;2023-08-20T01:09:01;6.85;;;2.60;;
54428;SDS011;40337;52.978;6.310;2023-08-20T01:11:33;5.55;;;2.72;;
54428;SDS011;40337;52.978;6.310;2023-08-20T01:14:13;5.50;;;2.75;;
54428;SDS011;40337;52.978;6.310;2023-08-20T01:16:40;5.97;;;2.70;;
54428;SDS011;40337;52.978;6.310;2023-08-20T01:19:06;4.72;;;2.55;;
54428;SDS011;40337;52.978;6.310;2023-08-20T01:21:39;4.97;;;2.58;;
54428;SDS011;40337;52.978;6.310;2023-08-20T01:24:24;3.90;;;2.80;;
54428;SDS011;40337;52.978;6.310;2023-08-20T01:29:54;5.45;;;3.05;;
54428;SDS011;40337;52.978;6.310;2023-08-20T01:32:20;6.60;;;3.25;;
54428;SDS011;40337;52.978;6.310;2023-08-20T01:34:48;6.07;;;3.20;;
54428;SDS011;40337;52.978;6.310;2023-08-20T01:37:13;7.22;;;3.33;;
54428;SDS011;40337;52.978;6.310;2023-08-20T01:39:39;8.32;;;3.78;;
54428;SDS011;40337;52.978;6.310;2023-08-20T01:42:05;5.63;;;3.72;;
54428;SDS011;40337;52.978;6.310;2023-08-20T01:44:31;6.35;;;3.75;;
54428;SDS011;40337;52.978;6.310;2023-08-20T01:46:56;5.63;;;4.05;;
54428;SDS011;40337;52.978;6.310;2023-08-20T01:49:22;6.10;;;4.15;;
54428;SDS011;40337;52.978;6.310;2023-08-20T01:51:48;8.73;;;5.47;;
54428;SDS011;40337;52.978;6.310;2023-08-20T01:54:14;7.95;;;4.90;;
54428;SDS011;40337;52.978;6.310;2023-08-20T01:56:39;7.25;;;4.10;;
54428;SDS011;40337;52.978;6.310;2023-08-20T01:59:05;6.65;;;3.85;;
54428;SDS011;40337;52.978;6.310;2023-08-20T02:01:31;9.52;;;5.88;;
54428;SDS011;40337;52.978;6.310;2023-08-20T02:03:56;11.90;;;7.00;;
54428;SDS011;40337;52.978;6.310;2023-08-20T02:06:22;14.23;;;8.20;;
54428;SDS011;40337;52.978;6.310;2023-08-20T02:08:48;11.15;;;7.90;;
54428;SDS011;40337;52.978;6.310;2023-08-20T02:11:13;10.95;;;8.15;;
54428;SDS011;40337;52.978;6.310;2023-08-20T02:13:39;11.95;;;8.30;;
54428;SDS011;40337;52.978;6.310;2023-08-20T02:16:04;10.30;;;7.93;;
54428;SDS011;40337;52.978;6.310;2023-08-20T02:18:31;10.98;;;8.00;;
54428;SDS011;40337;52.978;6.310;2023-08-20T02:20:57;11.93;;;6.80;;
54428;SDS011;40337;52.978;6.310;2023-08-20T02:23:23;9.38;;;7.57;;
54428;SDS011;40337;52.978;6.310;2023-08-20T02:25:48;9.43;;;6.57;;
54428;SDS011;40337;52.978;6.310;2023-08-20T02:28:14;12.57;;;7.13;;
54428;SDS011;40337;52.978;6.310;2023-08-20T02:30:43;10.82;;;6.65;;
54428;SDS011;40337;52.978;6.310;2023-08-20T02:33:11;11.48;;;7.30;;
54428;SDS011;40337;52.978;6.310;2023-08-20T02:35:37;9.90;;;7.03;;
54428;SDS011;40337;52.978;6.310;2023-08-20T02:38:03;8.48;;;6.78;;
54428;SDS011;40337;52.978;6.310;2023-08-20T02:40:29;9.48;;;6.80;;
54428;SDS011;40337;52.978;6.310;2023-08-20T02:42:54;8.77;;;6.13;;
54428;SDS011;40337;52.978;6.310;2023-08-20T02:45:20;7.55;;;5.40;;
54428;SDS011;40337;52.978;6.310;2023-08-20T02:47:45;4.78;;;3.75;;
54428;SDS011;40337;52.978;6.310;2023-08-20T02:50:11;7.57;;;4.50;;
54428;SDS011;40337;52.978;6.310;2023-08-20T02:52:37;7.70;;;4.30;;
54428;SDS011;40337;52.978;6.310;2023-08-20T02:55:02;9.60;;;7.30;;
54428;SDS011;40337;52.978;6.310;2023-08-20T02:57:29;10.27;;;7.80;;
54428;SDS011;40337;52.978;6.310;2023-08-20T02:59:56;10.50;;;7.53;;
54428;SDS011;40337;52.978;6.310;2023-08-20T03:02:21;10.48;;;7.97;;
54428;SDS011;40337;52.978;6.310;2023-08-20T03:04:47;10.10;;;7.90;;
54428;SDS011;40337;52.978;6.310;2023-08-20T03:07:13;10.88;;;8.68;;
54428;SDS011;40337;52.978;6.310;2023-08-20T03:09:38;10.02;;;8.10;;
54428;SDS011;40337;52.978;6.310;2023-08-20T03:12:04;12.73;;;7.95;;
54428;SDS011;40337;52.978;6.310;2023-08-20T03:14:29;11.90;;;7.93;;
54428;SDS011;40337;52.978;6.310;2023-08-20T03:16:55;12.48;;;8.65;;
54428;SDS011;40337;52.978;6.310;2023-08-20T03:19:21;11.75;;;7.88;;
54428;SDS011;40337;52.978;6.310;2023-08-20T03:21:46;12.60;;;8.23;;
54428;SDS011;40337;52.978;6.310;2023-08-20T03:24:12;11.35;;;7.72;;
54428;SDS011;40337;52.978;6.310;2023-08-20T03:26:37;9.75;;;6.43;;
54428;SDS011;40337;52.978;6.310;2023-08-20T03:29:03;10.70;;;6.38;;
54428;SDS011;40337;52.978;6.310;2023-08-20T03:31:29;10.07;;;7.00;;
54428;SDS011;40337;52.978;6.310;2023-08-20T03:33:54;9.73;;;6.93;;
54428;SDS011;40337;52.978;6.310;2023-08-20T03:36:20;7.85;;;6.35;;
54428;SDS011;40337;52.978;6.310;2023-08-20T03:38:45;10.45;;;7.70;;
54428;SDS011;40337;52.978;6.310;2023-08-20T03:41:11;12.75;;;7.55;;
54428;SDS011;40337;52.978;6.310;2023-08-20T03:43:36;12.13;;;7.85;;
54428;SDS011;40337;52.978;6.310;2023-08-20T03:46:02;13.57;;;8.13;;
54428;SDS011;40337;52.978;6.310;2023-08-20T03:48:28;12.55;;;7.85;;
54428;SDS011;40337;52.978;6.310;2023-08-20T03:50:54;12.68;;;7.68;;
54428;SDS011;40337;52.978;6.310;2023-08-20T03:53:19;10.82;;;7.93;;
54428;SDS011;40337;52.978;6.310;2023-08-20T03:55:51;12.70;;;8.20;;
54428;SDS011;40337;52.978;6.310;2023-08-20T03:58:16;10.70;;;8.02;;
54428;SDS011;40337;52.978;6.310;2023-08-20T04:00:43;10.88;;;7.43;;
54428;SDS011;40337;52.978;6.310;2023-08-20T04:03:09;13.25;;;7.13;;
54428;SDS011;40337;52.978;6.310;2023-08-20T04:05:38;11.88;;;7.40;;
54428;SDS011;40337;52.978;6.310;2023-08-20T04:08:04;9.30;;;6.72;;
54428;SDS011;40337;52.978;6.310;2023-08-20T04:10:31;10.70;;;7.45;;
54428;SDS011;40337;52.978;6.310;2023-08-20T04:12:56;11.60;;;7.50;;
54428;SDS011;40337;52.978;6.310;2023-08-20T04:15:23;10.80;;;6.90;;
54428;SDS011;40337;52.978;6.310;2023-08-20T04:17:48;10.02;;;7.20;;
54428;SDS011;40337;52.978;6.310;2023-08-20T04:20:14;10.63;;;7.07;;
54428;SDS011;40337;52.978;6.310;2023-08-20T04:22:40;11.98;;;7.07;;
54428;SDS011;40337;52.978;6.310;2023-08-20T04:25:06;10.13;;;6.82;;
54428;SDS011;40337;52.978;6.310;2023-08-20T04:27:32;12.85;;;7.35;;
54428;SDS011;40337;52.978;6.310;2023-08-20T04:29:58;9.02;;;6.45;;
54428;SDS011;40337;52.978;6.310;2023-08-20T04:32:24;11.05;;;6.38;;
54428;SDS011;40337;52.978;6.310;2023-08-20T04:34:49;10.43;;;6.75;;
54428;SDS011;40337;52.978;6.310;2023-08-20T04:37:17;9.90;;;6.60;;
54428;SDS011;40337;52.978;6.310;2023-08-20T04:39:44;11.38;;;6.93;;
54428;SDS011;40337;52.978;6.310;2023-08-20T04:42:09;13.10;;;6.75;;
54428;SDS011;40337;52.978;6.310;2023-08-20T04:44:35;11.00;;;6.72;;
54428;SDS011;40337;52.978;6.310;2023-08-20T04:47:00;11.23;;;7.30;;
54428;SDS011;40337;52.978;6.310;2023-08-20T04:49:26;9.48;;;6.88;;
54428;SDS011;40337;52.978;6.310;2023-08-20T04:51:53;9.35;;;6.68;;
54428;SDS011;40337;52.978;6.310;2023-08-20T04:54:19;10.77;;;6.90;;
54428;SDS011;40337;52.978;6.310;2023-08-20T04:56:45;10.55;;;6.80;;
54428;SDS011;40337;52.978;6.310;2023-08-20T04:59:10;10.55;;;6.90;;
54428;SDS011;40337;52.978;6.310;2023-08-20T05:01:37;10.43;;;7.03;;
54428;SDS011;40337;52.978;6.310;2023-08-20T05:04:03;9.60;;;7.32;;
54428;SDS011;40337;52.978;6.310;2023-08-20T05:06:29;10.32;;;7.35;;
54428;SDS011;40337;52.978;6.310;2023-08-20T05:08:54;11.90;;;7.30;;
54428;SDS011;40337;52.978;6.310;2023-08-20T05:11:20;11.40;;;7.38;;
54428;SDS011;40337;52.978;6.310;2023-08-20T05:13:47;10.57;;;7.60;;
54428;SDS011;40337;52.978;6.310;2023-08-20T05:16:14;10.35;;;7.45;;
54428;SDS011;40337;52.978;6.310;2023-08-20T05:18:40;11.98;;;7.53;;
54428;SDS011;40337;52.978;6.310;2023-08-20T05:21:05;9.95;;;7.53;;
54428;SDS011;40337;52.978;6.310;2023-08-20T05:23:31;10.98;;;7.35;;
54428;SDS011;40337;52.978;6.310;2023-08-20T05:25:56;10.73;;;7.35;;
54428;SDS011;40337;52.978;6.310;2023-08-20T05:28:22;10.35;;;7.50;;
54428;SDS011;40337;52.978;6.310;2023-08-20T05:30:54;13.05;;;7.53;;
54428;SDS011;40337;52.978;6.310;2023-08-20T05:33:23;10.82;;;7.20;;
54428;SDS011;40337;52.978;6.310;2023-08-20T05:35:49;12.18;;;7.82;;
54428;SDS011;40337;52.978;6.310;2023-08-20T05:38:14;7.97;;;6.80;;
54428;SDS011;40337;52.978;6.310;2023-08-20T05:40:40;11.98;;;7.35;;
54428;SDS011;40337;52.978;6.310;2023-08-20T05:43:06;11.23;;;7.28;;
54428;SDS011;40337;52.978;6.310;2023-08-20T05:45:32;12.20;;;7.70;;
54428;SDS011;40337;52.978;6.310;2023-08-20T05:47:57;10.90;;;7.13;;
54428;SDS011;40337;52.978;6.310;2023-08-20T05:50:23;9.48;;;7.43;;
54428;SDS011;40337;52.978;6.310;2023-08-20T05:52:49;9.18;;;7.18;;
54428;SDS011;40337;52.978;6.310;2023-08-20T05:55:14;9.52;;;7.40;;
54428;SDS011;40337;52.978;6.310;2023-08-20T05:57:40;10.52;;;7.63;;
54428;SDS011;40337;52.978;6.310;2023-08-20T06:00:08;11.05;;;7.55;;
54428;SDS011;40337;52.978;6.310;2023-08-20T06:02:35;11.63;;;7.70;;
54428;SDS011;40337;52.978;6.310;2023-08-20T06:05:01;13.77;;;7.40;;
54428;SDS011;40337;52.978;6.310;2023-08-20T06:07:31;13.55;;;7.85;;
54428;SDS011;40337;52.978;6.310;2023-08-20T06:09:56;11.27;;;7.95;;
54428;SDS011;40337;52.978;6.310;2023-08-20T06:12:22;13.45;;;8.18;;
54428;SDS011;40337;52.978;6.310;2023-08-20T06:14:48;11.20;;;7.50;;
54428;SDS011;40337;52.978;6.310;2023-08-20T06:17:14;11.75;;;7.28;;
54428;SDS011;40337;52.978;6.310;2023-08-20T06:19:40;12.95;;;8.05;;
54428;SDS011;40337;52.978;6.310;2023-08-20T06:22:05;12.85;;;7.38;;
54428;SDS011;40337;52.978;6.310;2023-08-20T06:24:31;11.50;;;6.95;;
54428;SDS011;40337;52.978;6.310;2023-08-20T06:26:57;10.68;;;7.13;;
54428;SDS011;40337;52.978;6.310;2023-08-20T06:29:22;15.98;;;7.60;;
54428;SDS011;40337;52.978;6.310;2023-08-20T06:31:48;13.23;;;6.97;;
54428;SDS011;40337;52.978;6.310;2023-08-20T06:34:15;10.98;;;6.50;;
54428;SDS011;40337;52.978;6.310;2023-08-20T06:36:40;11.68;;;7.13;;
54428;SDS011;40337;52.978;6.310;2023-08-20T06:39:06;12.60;;;7.15;;
54428;SDS011;40337;52.978;6.310;2023-08-20T06:41:32;10.65;;;7.40;;
54428;SDS011;40337;52.978;6.310;2023-08-20T06:43:58;13.55;;;8.10;;
54428;SDS011;40337;52.978;6.310;2023-08-20T06:46:24;11.95;;;7.25;;
54428;SDS011;40337;52.978;6.310;2023-08-20T06:48:49;13.98;;;7.90;;
54428;SDS011;40337;52.978;6.310;2023-08-20T06:51:15;13.85;;;7.43;;
54428;SDS011;40337;52.978;6.310;2023-08-20T06:53:45;12.55;;;7.47;;
54428;SDS011;40337;52.978;6.310;2023-08-20T06:56:10;11.55;;;8.00;;
54428;SDS011;40337;52.978;6.310;2023-08-20T06:58:37;14.43;;;8.20;;
54428;SDS011;40337;52.978;6.310;2023-08-20T07:01:03;13.50;;;8.38;;
54428;SDS011;40337;52.978;6.310;2023-08-20T07:03:40;12.45;;;7.28;;
54428;SDS011;40337;52.978;6.310;2023-08-20T07:06:06;14.80;;;7.65;;
54428;SDS011;40337;52.978;6.310;2023-08-20T07:08:34;13.65;;;7.38;;
54428;SDS011;40337;52.978;6.310;2023-08-20T07:11:00;10.82;;;7.18;;
54428;SDS011;40337;52.978;6.310;2023-08-20T07:13:25;15.57;;;6.80;;
54428;SDS011;40337;52.978;6.310;2023-08-20T07:15:51;13.00;;;6.72;;
54428;SDS011;40337;52.978;6.310;2023-08-20T07:18:17;12.98;;;7.28;;
54428;SDS011;40337;52.978;6.310;2023-08-20T07:20:42;11.77;;;7.05;;
54428;SDS011;40337;52.978;6.310;2023-08-20T07:23:09;14.10;;;6.80;;
54428;SDS011;40337;52.978;6.310;2023-08-20T07:25:38;12.27;;;6.82;;
54428;SDS011;40337;52.978;6.310;2023-08-20T07:28:08;14.27;;;7.10;;
54428;SDS011;40337;52.978;6.310;2023-08-20T07:30:34;10.65;;;6.43;;
54428;SDS011;40337;52.978;6.310;2023-08-20T07:33:00;14.93;;;6.43;;
54428;SDS011;40337;52.978;6.310;2023-08-20T07:35:26;12.68;;;6.55;;
54428;SDS011;40337;52.978;6.310;2023-08-20T07:37:52;10.93;;;6.00;;
54428;SDS011;40337;52.978;6.310;2023-08-20T07:40:17;10.00;;;5.80;;
54428;SDS011;40337;52.978;6.310;2023-08-20T07:42:43;12.77;;;5.85;;
54428;SDS011;40337;52.978;6.310;2023-08-20T07:45:09;12.52;;;5.40;;
54428;SDS011;40337;52.978;6.310;2023-08-20T07:47:38;10.35;;;4.80;;
54428;SDS011;40337;52.978;6.310;2023-08-20T07:50:04;15.95;;;5.50;;
54428;SDS011;40337;52.978;6.310;2023-08-20T07:52:33;10.38;;;4.55;;
54428;SDS011;40337;52.978;6.310;2023-08-20T07:54:59;9.38;;;4.40;;
54428;SDS011;40337;52.978;6.310;2023-08-20T07:57:25;11.55;;;5.10;;
54428;SDS011;40337;52.978;6.310;2023-08-20T07:59:51;12.57;;;5.10;;
54428;SDS011;40337;52.978;6.310;2023-08-20T08:02:17;10.35;;;5.60;;
54428;SDS011;40337;52.978;6.310;2023-08-20T08:04:43;10.68;;;4.85;;
54428;SDS011;40337;52.978;6.310;2023-08-20T08:07:09;9.25;;;4.95;;
54428;SDS011;40337;52.978;6.310;2023-08-20T08:09:35;11.63;;;4.85;;
54428;SDS011;40337;52.978;6.310;2023-08-20T08:12:01;9.23;;;4.40;;
54428;SDS011;40337;52.978;6.310;2023-08-20T08:14:27;10.15;;;4.25;;
54428;SDS011;40337;52.978;6.310;2023-08-20T08:16:53;10.50;;;4.35;;
54428;SDS011;40337;52.978;6.310;2023-08-20T08:19:19;10.52;;;4.40;;
54428;SDS011;40337;52.978;6.310;2023-08-20T08:21:45;14.25;;;4.80;;
54428;SDS011;40337;52.978;6.310;2023-08-20T08:24:12;12.98;;;5.10;;
54428;SDS011;40337;52.978;6.310;2023-08-20T08:26:38;10.85;;;4.80;;
54428;SDS011;40337;52.978;6.310;2023-08-20T08:29:06;11.95;;;4.28;;
54428;SDS011;40337;52.978;6.310;2023-08-20T08:31:32;16.10;;;4.55;;
54428;SDS011;40337;52.978;6.310;2023-08-20T08:33:58;9.07;;;3.30;;
54428;SDS011;40337;52.978;6.310;2023-08-20T08:36:24;6.85;;;2.60;;
54428;SDS011;40337;52.978;6.310;2023-08-20T08:38:50;9.07;;;3.00;;
54428;SDS011;40337;52.978;6.310;2023-08-20T08:41:16;13.00;;;3.83;;
54428;SDS011;40337;52.978;6.310;2023-08-20T08:43:43;9.77;;;3.75;;
54428;SDS011;40337;52.978;6.310;2023-08-20T08:46:12;9.68;;;3.28;;
54428;SDS011;40337;52.978;6.310;2023-08-20T08:48:42;8.52;;;2.65;;
54428;SDS011;40337;52.978;6.310;2023-08-20T08:51:09;10.05;;;2.72;;
54428;SDS011;40337;52.978;6.310;2023-08-20T08:53:34;7.93;;;2.70;;
54428;SDS011;40337;52.978;6.310;2023-08-20T08:56:01;9.85;;;2.60;;
54428;SDS011;40337;52.978;6.310;2023-08-20T08:58:27;9.25;;;2.47;;
54428;SDS011;40337;52.978;6.310;2023-08-20T09:00:53;6.50;;;2.28;;
54428;SDS011;40337;52.978;6.310;2023-08-20T09:03:19;9.43;;;2.47;;
54428;SDS011;40337;52.978;6.310;2023-08-20T09:05:49;8.43;;;2.20;;
54428;SDS011;40337;52.978;6.310;2023-08-20T09:08:22;7.70;;;2.10;;
54428;SDS011;40337;52.978;6.310;2023-08-20T09:10:52;7.90;;;2.20;;
54428;SDS011;40337;52.978;6.310;2023-08-20T09:13:53;5.05;;;2.20;;
54428;SDS011;40337;52.978;6.310;2023-08-20T09:16:11;7.32;;;2.35;;
54428;SDS011;40337;52.978;6.310;2023-08-20T09:18:41;6.53;;;2.35;;
54428;SDS011;40337;52.978;6.310;2023-08-20T09:21:10;6.35;;;2.20;;
54428;SDS011;40337;52.978;6.310;2023-08-20T09:23:37;7.10;;;2.38;;
54428;SDS011;40337;52.978;6.310;2023-08-20T09:26:04;8.05;;;2.00;;
54428;SDS011;40337;52.978;6.310;2023-08-20T09:28:40;7.20;;;2.00;;
54428;SDS011;40337;52.978;6.310;2023-08-20T09:31:14;9.13;;;2.70;;
54428;SDS011;40337;52.978;6.310;2023-08-20T09:33:50;8.15;;;2.47;;
54428;SDS011;40337;52.978;6.310;2023-08-20T09:36:17;7.28;;;2.42;;
54428;SDS011;40337;52.978;6.310;2023-08-20T09:38:43;11.25;;;2.75;;
54428;SDS011;40337;52.978;6.310;2023-08-20T09:41:08;8.27;;;2.58;;
54428;SDS011;40337;52.978;6.310;2023-08-20T09:43:35;8.07;;;2.40;;
54428;SDS011;40337;52.978;6.310;2023-08-20T09:46:03;9.82;;;2.78;;
54428;SDS011;40337;52.978;6.310;2023-08-20T09:48:33;7.20;;;2.25;;
54428;SDS011;40337;52.978;6.310;2023-08-20T09:51:01;6.78;;;2.63;;
54428;SDS011;40337;52.978;6.310;2023-08-20T09:53:34;8.18;;;2.80;;
54428;SDS011;40337;52.978;6.310;2023-08-20T09:56:36;6.13;;;2.40;;
54428;SDS011;40337;52.978;6.310;2023-08-20T09:59:02;7.40;;;2.13;;
54428;SDS011;40337;52.978;6.310;2023-08-20T10:01:29;5.70;;;1.73;;
54428;SDS011;40337;52.978;6.310;2023-08-20T10:03:55;8.80;;;2.30;;
54428;SDS011;40337;52.978;6.310;2023-08-20T10:06:21;6.05;;;2.20;;
54428;SDS011;40337;52.978;6.310;2023-08-20T10:08:48;6.82;;;2.15;;
54428;SDS011;40337;52.978;6.310;2023-08-20T10:11:16;7.55;;;2.38;;
54428;SDS011;40337;52.978;6.310;2023-08-20T10:13:42;8.05;;;2.70;;
54428;SDS011;40337;52.978;6.310;2023-08-20T10:16:08;7.03;;;2.05;;
54428;SDS011;40337;52.978;6.310;2023-08-20T10:18:34;5.78;;;2.10;;
54428;SDS011;40337;52.978;6.310;2023-08-20T10:21:00;4.88;;;1.58;;
54428;SDS011;40337;52.978;6.310;2023-08-20T10:23:26;9.13;;;2.00;;
54428;SDS011;40337;52.978;6.310;2023-08-20T10:25:52;7.60;;;2.20;;
54428;SDS011;40337;52.978;6.310;2023-08-20T10:28:25;6.90;;;1.92;;
54428;SDS011;40337;52.978;6.310;2023-08-20T10:33:33;5.65;;;1.80;;
54428;SDS011;40337;52.978;6.310;2023-08-20T10:36:18;5.05;;;1.50;;
54428;SDS011;40337;52.978;6.310;2023-08-20T10:38:53;5.07;;;1.75;;
54428;SDS011;40337;52.978;6.310;2023-08-20T10:41:24;5.55;;;1.65;;
54428;SDS011;40337;52.978;6.310;2023-08-20T10:43:50;7.38;;;1.80;;
54428;SDS011;40337;52.978;6.310;2023-08-20T10:46:24;5.40;;;1.42;;
54428;SDS011;40337;52.978;6.310;2023-08-20T10:48:52;7.05;;;1.83;;
54428;SDS011;40337;52.978;6.310;2023-08-20T10:51:29;6.30;;;1.63;;
54428;SDS011;40337;52.978;6.310;2023-08-20T10:59:21;4.60;;;1.45;;
54428;SDS011;40337;52.978;6.310;2023-08-20T11:01:48;6.10;;;1.60;;
54428;SDS011;40337;52.978;6.310;2023-08-20T11:04:25;6.13;;;1.55;;
54428;SDS011;40337;52.978;6.310;2023-08-20T11:06:57;6.80;;;1.98;;
54428;SDS011;40337;52.978;6.310;2023-08-20T11:09:25;7.32;;;1.90;;
54428;SDS011;40337;52.978;6.310;2023-08-20T11:11:51;6.85;;;1.80;;
54428;SDS011;40337;52.978;6.310;2023-08-20T11:14:18;4.97;;;1.55;;
54428;SDS011;40337;52.978;6.310;2023-08-20T11:16:45;5.28;;;1.60;;
54428;SDS011;40337;52.978;6.310;2023-08-20T11:19:12;8.10;;;1.90;;
54428;SDS011;40337;52.978;6.310;2023-08-20T11:21:39;5.63;;;1.63;;
54428;SDS011;40337;52.978;6.310;2023-08-20T11:24:06;4.10;;;1.33;;
54428;SDS011;40337;52.978;6.310;2023-08-20T11:26:32;4.93;;;1.42;;
54428;SDS011;40337;52.978;6.310;2023-08-20T11:29:08;4.82;;;1.67;;
54428;SDS011;40337;52.978;6.310;2023-08-20T11:31:36;7.15;;;1.98;;
54428;SDS011;40337;52.978;6.310;2023-08-20T11:34:02;5.72;;;1.77;;
54428;SDS011;40337;52.978;6.310;2023-08-20T11:36:28;5.97;;;1.63;;
54428;SDS011;40337;52.978;6.310;2023-08-20T11:38:54;6.20;;;2.15;;
54428;SDS011;40337;52.978;6.310;2023-08-20T11:41:23;5.43;;;1.70;;
54428;SDS011;40337;52.978;6.310;2023-08-20T11:43:50;4.70;;;1.60;;
54428;SDS011;40337;52.978;6.310;2023-08-20T11:46:21;5.60;;;1.52;;
54428;SDS011;40337;52.978;6.310;2023-08-20T11:49:07;5.78;;;1.70;;
54428;SDS011;40337;52.978;6.310;2023-08-20T11:51:35;4.20;;;1.50;;
54428;SDS011;40337;52.978;6.310;2023-08-20T11:54:07;5.40;;;1.50;;
54428;SDS011;40337;52.978;6.310;2023-08-20T11:56:33;4.57;;;1.42;;
54428;SDS011;40337;52.978;6.310;2023-08-20T11:59:00;4.55;;;1.50;;
54428;SDS011;40337;52.978;6.310;2023-08-20T12:01:29;6.95;;;1.83;;
54428;SDS011;40337;52.978;6.310;2023-08-20T12:04:08;6.68;;;1.67;;
54428;SDS011;40337;52.978;6.310;2023-08-20T12:06:36;5.75;;;2.00;;
54428;SDS011;40337;52.978;6.310;2023-08-20T12:09:23;8.68;;;2.08;;
54428;SDS011;40337;52.978;6.310;2023-08-20T12:11:49;8.07;;;1.63;;
54428;SDS011;40337;52.978;6.310;2023-08-20T12:14:21;5.45;;;1.80;;
54428;SDS011;40337;52.978;6.310;2023-08-20T12:16:47;4.40;;;1.70;;
54428;SDS011;40337;52.978;6.310;2023-08-20T12:19:13;5.60;;;1.50;;
54428;SDS011;40337;52.978;6.310;2023-08-20T12:21:41;4.93;;;1.70;;
54428;SDS011;40337;52.978;6.310;2023-08-20T12:24:08;5.18;;;1.60;;
54428;SDS011;40337;52.978;6.310;2023-08-20T12:26:35;5.60;;;1.70;;
54428;SDS011;40337;52.978;6.310;2023-08-20T12:29:01;5.90;;;1.60;;
54428;SDS011;40337;52.978;6.310;2023-08-20T12:31:26;3.97;;;1.48;;
54428;SDS011;40337;52.978;6.310;2023-08-20T12:33:52;4.63;;;1.60;;
54428;SDS011;40337;52.978;6.310;2023-08-20T12:36:18;5.78;;;1.70;;
54428;SDS011;40337;52.978;6.310;2023-08-20T12:38:43;4.85;;;1.70;;
54428;SDS011;40337;52.978;6.310;2023-08-20T12:41:10;4.63;;;1.70;;
54428;SDS011;40337;52.978;6.310;2023-08-20T12:43:35;5.68;;;1.80;;
54428;SDS011;40337;52.978;6.310;2023-08-20T12:46:01;3.47;;;1.40;;
54428;SDS011;40337;52.978;6.310;2023-08-20T12:48:28;4.18;;;1.48;;
54428;SDS011;40337;52.978;6.310;2023-08-20T12:50:54;3.60;;;1.48;;
54428;SDS011;40337;52.978;6.310;2023-08-20T12:53:19;3.45;;;1.30;;
54428;SDS011;40337;52.978;6.310;2023-08-20T12:55:46;4.25;;;1.70;;
54428;SDS011;40337;52.978;6.310;2023-08-20T12:58:11;6.88;;;2.05;;
54428;SDS011;40337;52.978;6.310;2023-08-20T13:00:37;4.53;;;1.60;;
54428;SDS011;40337;52.978;6.310;2023-08-20T13:03:04;4.47;;;1.52;;
54428;SDS011;40337;52.978;6.310;2023-08-20T13:05:30;3.80;;;1.33;;
54428;SDS011;40337;52.978;6.310;2023-08-20T13:07:56;3.50;;;1.30;;
54428;SDS011;40337;52.978;6.310;2023-08-20T13:10:22;4.13;;;1.50;;
54428;SDS011;40337;52.978;6.310;2023-08-20T13:12:48;5.53;;;1.60;;
54428;SDS011;40337;52.978;6.310;2023-08-20T13:15:17;4.85;;;1.50;;
54428;SDS011;40337;52.978;6.310;2023-08-20T13:17:45;5.55;;;1.63;;
54428;SDS011;40337;52.978;6.310;2023-08-20T13:20:11;4.45;;;1.50;;
54428;SDS011;40337;52.978;6.310;2023-08-20T13:22:37;5.10;;;1.73;;
54428;SDS011;40337;52.978;6.310;2023-08-20T13:25:02;5.97;;;1.70;;
54428;SDS011;40337;52.978;6.310;2023-08-20T13:27:29;5.55;;;1.50;;
54428;SDS011;40337;52.978;6.310;2023-08-20T13:29:56;4.72;;;1.38;;
54428;SDS011;40337;52.978;6.310;2023-08-20T13:32:21;3.78;;;1.25;;
54428;SDS011;40337;52.978;6.310;2023-08-20T13:34:47;2.92;;;1.15;;
54428;SDS011;40337;52.978;6.310;2023-08-20T13:37:14;4.18;;;1.15;;
54428;SDS011;40337;52.978;6.310;2023-08-20T13:39:39;3.38;;;1.30;;
54428;SDS011;40337;52.978;6.310;2023-08-20T13:42:05;4.50;;;1.42;;
54428;SDS011;40337;52.978;6.310;2023-08-20T13:44:31;4.50;;;1.23;;
54428;SDS011;40337;52.978;6.310;2023-08-20T13:46:56;3.45;;;1.17;;
54428;SDS011;40337;52.978;6.310;2023-08-20T13:49:22;3.90;;;1.40;;
54428;SDS011;40337;52.978;6.310;2023-08-20T13:51:47;4.68;;;1.33;;
54428;SDS011;40337;52.978;6.310;2023-08-20T13:54:13;4.65;;;1.30;;
54428;SDS011;40337;52.978;6.310;2023-08-20T13:56:38;4.32;;;1.30;;
54428;SDS011;40337;52.978;6.310;2023-08-20T13:59:04;4.70;;;1.50;;
54428;SDS011;40337;52.978;6.310;2023-08-20T14:01:29;4.82;;;1.60;;
54428;SDS011;40337;52.978;6.310;2023-08-20T14:03:55;6.55;;;1.33;;
54428;SDS011;40337;52.978;6.310;2023-08-20T14:06:20;4.32;;;1.40;;
54428;SDS011;40337;52.978;6.310;2023-08-20T14:08:46;4.90;;;1.33;;
54428;SDS011;40337;52.978;6.310;2023-08-20T14:11:11;6.20;;;1.48;;
54428;SDS011;40337;52.978;6.310;2023-08-20T14:13:37;6.82;;;1.30;;
54428;SDS011;40337;52.978;6.310;2023-08-20T14:16:03;5.45;;;1.45;;
54428;SDS011;40337;52.978;6.310;2023-08-20T14:18:28;6.60;;;1.60;;
54428;SDS011;40337;52.978;6.310;2023-08-20T14:20:54;4.97;;;1.40;;
54428;SDS011;40337;52.978;6.310;2023-08-20T14:23:20;5.18;;;1.90;;
54428;SDS011;40337;52.978;6.310;2023-08-20T14:25:45;3.30;;;1.23;;
54428;SDS011;40337;52.978;6.310;2023-08-20T14:28:11;4.35;;;1.40;;
54428;SDS011;40337;52.978;6.310;2023-08-20T14:30:39;4.45;;;1.58;;
54428;SDS011;40337;52.978;6.310;2023-08-20T14:33:05;4.60;;;1.60;;
54428;SDS011;40337;52.978;6.310;2023-08-20T14:35:31;4.18;;;1.40;;
54428;SDS011;40337;52.978;6.310;2023-08-20T14:37:57;4.75;;;1.60;;
54428;SDS011;40337;52.978;6.310;2023-08-20T14:40:22;5.05;;;1.58;;
54428;SDS011;40337;52.978;6.310;2023-08-20T14:42:48;8.02;;;1.70;;
54428;SDS011;40337;52.978;6.310;2023-08-20T14:45:14;3.45;;;1.50;;
54428;SDS011;40337;52.978;6.310;2023-08-20T14:47:40;5.57;;;1.58;;
54428;SDS011;40337;52.978;6.310;2023-08-20T14:50:06;4.43;;;1.33;;
54428;SDS011;40337;52.978;6.310;2023-08-20T14:52:32;4.25;;;1.40;;